sensor_id;sensor_type;location;lat;lon;timestamp;temperature;humidity
20866;DHT22;10593;48.398;10.698;2023-03-16T00:02:09;7.30;44.80
20866;DHT22;10593;48.398;10.698;2023-03-16T00:04:35;7.30;44.80
20866;DHT22;10593;48.398;10.698;2023-03-16T00:07:04;7.30;44.80
20866;DHT22;10593;48.398;10.698;2023-03-16T00:09:31;7.30;44.80
20866;DHT22;10593;48.398;10.698;2023-03-16T00:11:58;7.30;44.70
20866;DHT22;10593;48.398;10.698;2023-03-16T00:14:30;7.30;44.70
20866;DHT22;10593;48.398;10.698;2023-03-16T00:16:56;7.30;44.80
20866;DHT22;10593;48.398;10.698;2023-03-16T00:19:21;7.20;44.70
20866;DHT22;10593;48.398;10.698;2023-03-16T00:21:51;7.20;44.70
20866;DHT22;10593;48.398;10.698;2023-03-16T00:24:17;7.20;44.70
20866;DHT22;10593;48.398;10.698;2023-03-16T00:26:45;7.20;44.70
20866;DHT22;10593;48.398;10.698;2023-03-16T00:29:11;7.20;44.70
20866;DHT22;10593;48.398;10.698;2023-03-16T00:31:41;7.10;44.60
20866;DHT22;10593;48.398;10.698;2023-03-16T00:34:12;7.10;44.60
20866;DHT22;10593;48.398;10.698;2023-03-16T00:36:39;7.10;44.60
20866;DHT22;10593;48.398;10.698;2023-03-16T00:39:07;7.10;44.60
20866;DHT22;10593;48.398;10.698;2023-03-16T00:41:35;7.10;44.60
20866;DHT22;10593;48.398;10.698;2023-03-16T00:44:05;7.00;44.60
20866;DHT22;10593;48.398;10.698;2023-03-16T00:46:31;7.00;44.60
20866;DHT22;10593;48.398;10.698;2023-03-16T00:48:57;7.00;44.60
20866;DHT22;10593;48.398;10.698;2023-03-16T00:51:22;7.00;44.60
20866;DHT22;10593;48.398;10.698;2023-03-16T00:53:48;6.90;44.50
20866;DHT22;10593;48.398;10.698;2023-03-16T00:56:14;6.90;44.50
20866;DHT22;10593;48.398;10.698;2023-03-16T00:58:41;7.00;44.70
20866;DHT22;10593;48.398;10.698;2023-03-16T01:01:11;6.90;44.60
20866;DHT22;10593;48.398;10.698;2023-03-16T01:03:39;6.90;44.70
20866;DHT22;10593;48.398;10.698;2023-03-16T01:06:07;6.90;44.70
20866;DHT22;10593;48.398;10.698;2023-03-16T01:08:38;6.90;44.80
20866;DHT22;10593;48.398;10.698;2023-03-16T01:11:07;6.80;44.60
20866;DHT22;10593;48.398;10.698;2023-03-16T01:13:36;6.80;44.70
20866;DHT22;10593;48.398;10.698;2023-03-16T01:16:03;6.80;45.20
20866;DHT22;10593;48.398;10.698;2023-03-16T01:18:29;6.80;44.70
20866;DHT22;10593;48.398;10.698;2023-03-16T01:20:59;6.80;44.70
20866;DHT22;10593;48.398;10.698;2023-03-16T01:23:27;6.80;44.80
20866;DHT22;10593;48.398;10.698;2023-03-16T01:25:54;6.70;44.70
20866;DHT22;10593;48.398;10.698;2023-03-16T01:28:23;6.70;44.70
20866;DHT22;10593;48.398;10.698;2023-03-16T01:30:50;6.70;44.70
20866;DHT22;10593;48.398;10.698;2023-03-16T01:33:22;6.70;44.70
20866;DHT22;10593;48.398;10.698;2023-03-16T01:36:00;6.70;44.70
20866;DHT22;10593;48.398;10.698;2023-03-16T01:38:28;6.60;44.70
20866;DHT22;10593;48.398;10.698;2023-03-16T01:40:54;6.60;44.70
20866;DHT22;10593;48.398;10.698;2023-03-16T01:43:22;6.60;44.70
20866;DHT22;10593;48.398;10.698;2023-03-16T01:48:55;6.60;44.80
20866;DHT22;10593;48.398;10.698;2023-03-16T01:51:40;6.60;44.80
20866;DHT22;10593;48.398;10.698;2023-03-16T01:59:47;6.50;44.70
20866;DHT22;10593;48.398;10.698;2023-03-16T02:02:21;6.50;44.70
20866;DHT22;10593;48.398;10.698;2023-03-16T02:04:53;6.40;44.60
20866;DHT22;10593;48.398;10.698;2023-03-16T02:07:27;6.40;44.70
20866;DHT22;10593;48.398;10.698;2023-03-16T02:09:58;6.40;44.80
20866;DHT22;10593;48.398;10.698;2023-03-16T02:12:27;6.40;44.80
20866;DHT22;10593;48.398;10.698;2023-03-16T02:14:54;6.40;44.90
20866;DHT22;10593;48.398;10.698;2023-03-16T02:17:26;6.30;44.90
20866;DHT22;10593;48.398;10.698;2023-03-16T02:20:23;6.30;45.00
20866;DHT22;10593;48.398;10.698;2023-03-16T02:22:51;6.30;45.00
20866;DHT22;10593;48.398;10.698;2023-03-16T02:25:27;6.30;44.90
20866;DHT22;10593;48.398;10.698;2023-03-16T02:28:19;6.30;44.90
20866;DHT22;10593;48.398;10.698;2023-03-16T02:30:48;6.30;45.40
20866;DHT22;10593;48.398;10.698;2023-03-16T02:33:15;6.20;44.70
20866;DHT22;10593;48.398;10.698;2023-03-16T02:35:42;6.20;44.70
20866;DHT22;10593;48.398;10.698;2023-03-16T02:38:08;6.20;44.60
20866;DHT22;10593;48.398;10.698;2023-03-16T02:40:34;6.20;44.60
20866;DHT22;10593;48.398;10.698;2023-03-16T02:43:06;6.20;44.60
20866;DHT22;10593;48.398;10.698;2023-03-16T02:48:34;6.20;44.60
20866;DHT22;10593;48.398;10.698;2023-03-16T02:51:03;6.10;44.60
20866;DHT22;10593;48.398;10.698;2023-03-16T02:53:29;6.10;44.60
20866;DHT22;10593;48.398;10.698;2023-03-16T02:55:55;6.10;44.60
20866;DHT22;10593;48.398;10.698;2023-03-16T02:58:21;6.10;44.60
20866;DHT22;10593;48.398;10.698;2023-03-16T03:00:46;6.10;44.60
20866;DHT22;10593;48.398;10.698;2023-03-16T03:03:12;6.00;44.60
20866;DHT22;10593;48.398;10.698;2023-03-16T03:05:38;6.00;44.60
20866;DHT22;10593;48.398;10.698;2023-03-16T03:08:05;6.00;44.60
20866;DHT22;10593;48.398;10.698;2023-03-16T03:10:31;6.00;44.60
20866;DHT22;10593;48.398;10.698;2023-03-16T03:12:57;6.00;44.70
20866;DHT22;10593;48.398;10.698;2023-03-16T03:15:23;6.00;44.70
20866;DHT22;10593;48.398;10.698;2023-03-16T03:17:50;6.00;44.70
20866;DHT22;10593;48.398;10.698;2023-03-16T03:20:15;5.90;44.60
20866;DHT22;10593;48.398;10.698;2023-03-16T03:22:43;5.90;44.60
20866;DHT22;10593;48.398;10.698;2023-03-16T03:25:13;5.90;44.60
20866;DHT22;10593;48.398;10.698;2023-03-16T03:27:42;5.90;44.70
20866;DHT22;10593;48.398;10.698;2023-03-16T03:30:10;5.90;44.70
20866;DHT22;10593;48.398;10.698;2023-03-16T03:32:39;5.90;44.60
20866;DHT22;10593;48.398;10.698;2023-03-16T03:35:05;5.90;44.60
20866;DHT22;10593;48.398;10.698;2023-03-16T03:37:32;5.80;44.60
20866;DHT22;10593;48.398;10.698;2023-03-16T03:39:58;5.80;44.60
20866;DHT22;10593;48.398;10.698;2023-03-16T03:42:24;5.80;44.60
20866;DHT22;10593;48.398;10.698;2023-03-16T03:44:51;5.80;44.60
20866;DHT22;10593;48.398;10.698;2023-03-16T03:47:18;5.80;45.30
20866;DHT22;10593;48.398;10.698;2023-03-16T03:49:44;5.80;44.70
20866;DHT22;10593;48.398;10.698;2023-03-16T03:52:10;5.70;44.60
20866;DHT22;10593;48.398;10.698;2023-03-16T03:54:36;5.70;44.70
20866;DHT22;10593;48.398;10.698;2023-03-16T03:57:03;5.70;44.70
20866;DHT22;10593;48.398;10.698;2023-03-16T03:59:30;5.70;44.80
20866;DHT22;10593;48.398;10.698;2023-03-16T04:01:56;5.70;44.80
20866;DHT22;10593;48.398;10.698;2023-03-16T04:04:21;5.70;44.90
20866;DHT22;10593;48.398;10.698;2023-03-16T04:06:47;5.70;44.90
20866;DHT22;10593;48.398;10.698;2023-03-16T04:09:13;5.60;44.90
20866;DHT22;10593;48.398;10.698;2023-03-16T04:11:39;5.60;44.90
20866;DHT22;10593;48.398;10.698;2023-03-16T04:14:05;5.60;44.90
20866;DHT22;10593;48.398;10.698;2023-03-16T04:16:31;5.60;44.90
20866;DHT22;10593;48.398;10.698;2023-03-16T04:18:57;5.60;44.90
20866;DHT22;10593;48.398;10.698;2023-03-16T04:21:22;5.60;44.90
20866;DHT22;10593;48.398;10.698;2023-03-16T04:23:49;5.60;44.90
20866;DHT22;10593;48.398;10.698;2023-03-16T04:26:22;5.50;44.80
20866;DHT22;10593;48.398;10.698;2023-03-16T04:28:50;5.50;44.80
20866;DHT22;10593;48.398;10.698;2023-03-16T04:31:18;5.50;44.80
20866;DHT22;10593;48.398;10.698;2023-03-16T04:33:43;5.50;44.90
20866;DHT22;10593;48.398;10.698;2023-03-16T04:36:09;5.50;45.00
20866;DHT22;10593;48.398;10.698;2023-03-16T04:38:36;5.40;44.90
20866;DHT22;10593;48.398;10.698;2023-03-16T04:41:03;5.40;44.90
20866;DHT22;10593;48.398;10.698;2023-03-16T04:43:30;5.40;44.90
20866;DHT22;10593;48.398;10.698;2023-03-16T04:45:59;5.40;45.00
20866;DHT22;10593;48.398;10.698;2023-03-16T04:48:29;5.40;45.00
20866;DHT22;10593;48.398;10.698;2023-03-16T04:50:56;5.30;45.00
20866;DHT22;10593;48.398;10.698;2023-03-16T04:53:23;5.40;45.10
20866;DHT22;10593;48.398;10.698;2023-03-16T04:55:49;5.30;45.00
20866;DHT22;10593;48.398;10.698;2023-03-16T04:58:15;5.30;45.60
20866;DHT22;10593;48.398;10.698;2023-03-16T05:00:41;5.30;45.00
20866;DHT22;10593;48.398;10.698;2023-03-16T05:03:08;5.30;45.10
20866;DHT22;10593;48.398;10.698;2023-03-16T05:05:38;5.30;45.10
20866;DHT22;10593;48.398;10.698;2023-03-16T05:08:05;5.30;45.10
20866;DHT22;10593;48.398;10.698;2023-03-16T05:10:33;5.30;45.10
20866;DHT22;10593;48.398;10.698;2023-03-16T05:12:59;5.30;45.10
20866;DHT22;10593;48.398;10.698;2023-03-16T05:15:25;5.30;45.10
20866;DHT22;10593;48.398;10.698;2023-03-16T05:17:51;5.20;45.00
20866;DHT22;10593;48.398;10.698;2023-03-16T05:20:19;5.20;45.00
20866;DHT22;10593;48.398;10.698;2023-03-16T05:22:46;5.20;45.00
20866;DHT22;10593;48.398;10.698;2023-03-16T05:25:13;5.20;45.00
20866;DHT22;10593;48.398;10.698;2023-03-16T05:27:41;5.20;45.00
20866;DHT22;10593;48.398;10.698;2023-03-16T05:30:13;5.20;45.00
20866;DHT22;10593;48.398;10.698;2023-03-16T05:32:41;5.20;45.00
20866;DHT22;10593;48.398;10.698;2023-03-16T05:35:07;5.20;45.00
20866;DHT22;10593;48.398;10.698;2023-03-16T05:37:36;5.20;45.00
20866;DHT22;10593;48.398;10.698;2023-03-16T05:40:04;5.10;45.10
20866;DHT22;10593;48.398;10.698;2023-03-16T05:42:39;5.10;45.20
20866;DHT22;10593;48.398;10.698;2023-03-16T05:45:05;5.10;45.30
20866;DHT22;10593;48.398;10.698;2023-03-16T05:47:31;5.10;45.40
20866;DHT22;10593;48.398;10.698;2023-03-16T05:49:56;5.10;46.00
20866;DHT22;10593;48.398;10.698;2023-03-16T05:52:22;5.10;45.60
20866;DHT22;10593;48.398;10.698;2023-03-16T05:54:49;5.10;45.70
20866;DHT22;10593;48.398;10.698;2023-03-16T05:57:15;5.10;45.90
20866;DHT22;10593;48.398;10.698;2023-03-16T05:59:40;5.10;46.00
20866;DHT22;10593;48.398;10.698;2023-03-16T06:02:06;5.10;46.10
20866;DHT22;10593;48.398;10.698;2023-03-16T06:04:35;5.10;46.20
20866;DHT22;10593;48.398;10.698;2023-03-16T06:07:01;5.10;46.40
20866;DHT22;10593;48.398;10.698;2023-03-16T06:09:26;5.10;46.50
20866;DHT22;10593;48.398;10.698;2023-03-16T06:11:52;5.10;46.60
20866;DHT22;10593;48.398;10.698;2023-03-16T06:14:18;5.10;46.60
20866;DHT22;10593;48.398;10.698;2023-03-16T06:16:44;5.10;46.70
20866;DHT22;10593;48.398;10.698;2023-03-16T06:19:10;5.20;46.90
20866;DHT22;10593;48.398;10.698;2023-03-16T06:21:35;5.20;46.90
20866;DHT22;10593;48.398;10.698;2023-03-16T06:24:01;5.20;47.00
20866;DHT22;10593;48.398;10.698;2023-03-16T06:26:27;5.20;47.00
20866;DHT22;10593;48.398;10.698;2023-03-16T06:28:53;5.20;47.10
20866;DHT22;10593;48.398;10.698;2023-03-16T06:31:19;5.20;47.10
20866;DHT22;10593;48.398;10.698;2023-03-16T06:33:44;5.30;47.20
20866;DHT22;10593;48.398;10.698;2023-03-16T06:36:10;5.30;47.40
20866;DHT22;10593;48.398;10.698;2023-03-16T06:38:36;5.30;47.30
20866;DHT22;10593;48.398;10.698;2023-03-16T06:41:01;5.30;47.30
20866;DHT22;10593;48.398;10.698;2023-03-16T06:43:27;5.30;47.40
20866;DHT22;10593;48.398;10.698;2023-03-16T06:45:53;5.30;47.50
20866;DHT22;10593;48.398;10.698;2023-03-16T06:48:18;5.40;47.90
20866;DHT22;10593;48.398;10.698;2023-03-16T06:50:45;5.40;48.10
20866;DHT22;10593;48.398;10.698;2023-03-16T06:53:13;5.40;48.30
20866;DHT22;10593;48.398;10.698;2023-03-16T06:55:39;5.50;48.40
20866;DHT22;10593;48.398;10.698;2023-03-16T06:58:06;5.50;48.60
20866;DHT22;10593;48.398;10.698;2023-03-16T07:00:32;5.50;48.60
20866;DHT22;10593;48.398;10.698;2023-03-16T07:02:59;5.60;48.80
20866;DHT22;10593;48.398;10.698;2023-03-16T07:05:26;5.60;49.00
20866;DHT22;10593;48.398;10.698;2023-03-16T07:07:52;5.60;49.20
20866;DHT22;10593;48.398;10.698;2023-03-16T07:10:19;5.70;49.30
20866;DHT22;10593;48.398;10.698;2023-03-16T07:12:44;5.70;49.40
20866;DHT22;10593;48.398;10.698;2023-03-16T07:15:11;5.70;49.40
20866;DHT22;10593;48.398;10.698;2023-03-16T07:17:37;5.80;49.70
20866;DHT22;10593;48.398;10.698;2023-03-16T07:20:04;5.80;49.70
20866;DHT22;10593;48.398;10.698;2023-03-16T07:22:34;5.80;49.90
20866;DHT22;10593;48.398;10.698;2023-03-16T07:25:00;5.80;49.90
20866;DHT22;10593;48.398;10.698;2023-03-16T07:27:26;5.80;49.90
20866;DHT22;10593;48.398;10.698;2023-03-16T07:29:53;5.80;50.10
20866;DHT22;10593;48.398;10.698;2023-03-16T07:32:19;5.80;50.30
20866;DHT22;10593;48.398;10.698;2023-03-16T07:34:46;5.80;50.50
20866;DHT22;10593;48.398;10.698;2023-03-16T07:37:12;5.80;50.50
20866;DHT22;10593;48.398;10.698;2023-03-16T07:39:37;5.90;50.70
20866;DHT22;10593;48.398;10.698;2023-03-16T07:42:03;5.90;50.70
20866;DHT22;10593;48.398;10.698;2023-03-16T07:44:30;5.90;50.80
20866;DHT22;10593;48.398;10.698;2023-03-16T07:46:55;5.90;51.00
20866;DHT22;10593;48.398;10.698;2023-03-16T07:49:21;6.00;51.10
20866;DHT22;10593;48.398;10.698;2023-03-16T07:51:47;6.00;51.10
20866;DHT22;10593;48.398;10.698;2023-03-16T07:54:14;6.00;51.00
20866;DHT22;10593;48.398;10.698;2023-03-16T07:56:39;6.00;51.10
20866;DHT22;10593;48.398;10.698;2023-03-16T07:59:06;6.00;51.70
20866;DHT22;10593;48.398;10.698;2023-03-16T08:01:32;6.00;51.10
20866;DHT22;10593;48.398;10.698;2023-03-16T08:03:59;6.10;51.10
20866;DHT22;10593;48.398;10.698;2023-03-16T08:06:26;6.10;51.10
20866;DHT22;10593;48.398;10.698;2023-03-16T08:08:52;6.10;51.80
20866;DHT22;10593;48.398;10.698;2023-03-16T08:11:18;6.10;51.40
20866;DHT22;10593;48.398;10.698;2023-03-16T08:13:51;6.10;51.60
20866;DHT22;10593;48.398;10.698;2023-03-16T08:16:20;6.10;51.60
20866;DHT22;10593;48.398;10.698;2023-03-16T08:18:47;6.20;51.60
20866;DHT22;10593;48.398;10.698;2023-03-16T08:21:13;6.20;51.50
20866;DHT22;10593;48.398;10.698;2023-03-16T08:23:39;6.20;51.60
20866;DHT22;10593;48.398;10.698;2023-03-16T08:26:05;6.30;51.60
20866;DHT22;10593;48.398;10.698;2023-03-16T08:28:34;6.30;51.60
20866;DHT22;10593;48.398;10.698;2023-03-16T08:31:00;6.30;51.60
20866;DHT22;10593;48.398;10.698;2023-03-16T08:33:26;6.30;51.50
20866;DHT22;10593;48.398;10.698;2023-03-16T08:35:52;6.40;51.60
20866;DHT22;10593;48.398;10.698;2023-03-16T08:38:18;6.40;51.60
20866;DHT22;10593;48.398;10.698;2023-03-16T08:40:44;6.50;51.80
20866;DHT22;10593;48.398;10.698;2023-03-16T08:43:13;6.50;51.70
20866;DHT22;10593;48.398;10.698;2023-03-16T08:45:40;6.50;51.50
20866;DHT22;10593;48.398;10.698;2023-03-16T08:48:09;6.50;51.50
20866;DHT22;10593;48.398;10.698;2023-03-16T08:50:41;6.60;51.60
20866;DHT22;10593;48.398;10.698;2023-03-16T08:53:09;6.60;51.50
20866;DHT22;10593;48.398;10.698;2023-03-16T08:55:36;6.70;51.50
20866;DHT22;10593;48.398;10.698;2023-03-16T08:58:02;6.70;51.60
20866;DHT22;10593;48.398;10.698;2023-03-16T09:00:28;6.70;51.40
20866;DHT22;10593;48.398;10.698;2023-03-16T09:02:54;6.80;51.50
20866;DHT22;10593;48.398;10.698;2023-03-16T09:05:20;6.80;51.60
20866;DHT22;10593;48.398;10.698;2023-03-16T09:07:48;6.80;51.50
20866;DHT22;10593;48.398;10.698;2023-03-16T09:10:14;6.90;51.40
20866;DHT22;10593;48.398;10.698;2023-03-16T09:12:43;6.90;51.30
20866;DHT22;10593;48.398;10.698;2023-03-16T09:15:10;7.00;51.40
20866;DHT22;10593;48.398;10.698;2023-03-16T09:17:38;7.00;51.50
20866;DHT22;10593;48.398;10.698;2023-03-16T09:20:06;7.10;51.30
20866;DHT22;10593;48.398;10.698;2023-03-16T09:22:34;7.10;51.40
20866;DHT22;10593;48.398;10.698;2023-03-16T09:25:02;7.10;51.50
20866;DHT22;10593;48.398;10.698;2023-03-16T09:27:30;7.20;51.40
20866;DHT22;10593;48.398;10.698;2023-03-16T09:29:55;7.20;51.40
20866;DHT22;10593;48.398;10.698;2023-03-16T09:32:23;7.30;51.50
20866;DHT22;10593;48.398;10.698;2023-03-16T09:34:49;7.30;51.50
20866;DHT22;10593;48.398;10.698;2023-03-16T09:37:15;7.30;51.40
20866;DHT22;10593;48.398;10.698;2023-03-16T09:39:41;7.40;51.30
20866;DHT22;10593;48.398;10.698;2023-03-16T09:42:16;7.40;51.30
20866;DHT22;10593;48.398;10.698;2023-03-16T09:45:02;7.50;51.30
20866;DHT22;10593;48.398;10.698;2023-03-16T09:47:34;7.50;51.20
20866;DHT22;10593;48.398;10.698;2023-03-16T09:50:07;7.60;51.20
20866;DHT22;10593;48.398;10.698;2023-03-16T09:55:36;7.70;51.00
20866;DHT22;10593;48.398;10.698;2023-03-16T09:58:21;7.70;51.30
20866;DHT22;10593;48.398;10.698;2023-03-16T10:06:11;7.80;50.50
20866;DHT22;10593;48.398;10.698;2023-03-16T10:09:19;7.90;50.60
20866;DHT22;10593;48.398;10.698;2023-03-16T10:11:55;7.90;50.60
20866;DHT22;10593;48.398;10.698;2023-03-16T10:14:36;7.90;50.50
20866;DHT22;10593;48.398;10.698;2023-03-16T10:17:31;8.00;50.50
20866;DHT22;10593;48.398;10.698;2023-03-16T10:20:20;8.00;50.30
20866;DHT22;10593;48.398;10.698;2023-03-16T10:22:50;8.10;50.30
20866;DHT22;10593;48.398;10.698;2023-03-16T10:28:14;8.20;49.50
20866;DHT22;10593;48.398;10.698;2023-03-16T10:30:47;8.30;49.10
20866;DHT22;10593;48.398;10.698;2023-03-16T10:41:30;8.40;48.90
20866;DHT22;10593;48.398;10.698;2023-03-16T10:46:42;8.50;48.50
20866;DHT22;10593;48.398;10.698;2023-03-16T10:49:27;8.60;48.60
20866;DHT22;10593;48.398;10.698;2023-03-16T10:51:56;8.60;48.30
20866;DHT22;10593;48.398;10.698;2023-03-16T10:54:33;8.60;47.90
20866;DHT22;10593;48.398;10.698;2023-03-16T11:00:10;8.80;47.90
20866;DHT22;10593;48.398;10.698;2023-03-16T11:02:46;8.80;47.80
20866;DHT22;10593;48.398;10.698;2023-03-16T11:07:49;8.80;47.20
20866;DHT22;10593;48.398;10.698;2023-03-16T11:13:04;8.90;47.40
20866;DHT22;10593;48.398;10.698;2023-03-16T11:15:39;8.90;47.50
20866;DHT22;10593;48.398;10.698;2023-03-16T11:18:25;9.00;47.30
20866;DHT22;10593;48.398;10.698;2023-03-16T11:21:24;9.00;46.90
20866;DHT22;10593;48.398;10.698;2023-03-16T11:24:14;9.00;47.20
20866;DHT22;10593;48.398;10.698;2023-03-16T11:26:53;9.00;47.10
20866;DHT22;10593;48.398;10.698;2023-03-16T11:32:22;9.10;47.40
20866;DHT22;10593;48.398;10.698;2023-03-16T11:34:54;9.10;47.40
20866;DHT22;10593;48.398;10.698;2023-03-16T11:37:34;9.10;47.50
20866;DHT22;10593;48.398;10.698;2023-03-16T11:54:55;9.40;46.30
20866;DHT22;10593;48.398;10.698;2023-03-16T12:06:26;9.50;45.70
20866;DHT22;10593;48.398;10.698;2023-03-16T12:09:13;9.50;45.80
20866;DHT22;10593;48.398;10.698;2023-03-16T12:11:58;9.60;45.50
20866;DHT22;10593;48.398;10.698;2023-03-16T12:14:59;9.60;45.50
20866;DHT22;10593;48.398;10.698;2023-03-16T12:17:31;9.60;45.60
20866;DHT22;10593;48.398;10.698;2023-03-16T12:20:06;9.60;45.90
20866;DHT22;10593;48.398;10.698;2023-03-16T12:25:21;9.70;45.40
20866;DHT22;10593;48.398;10.698;2023-03-16T12:27:59;9.70;45.40
20866;DHT22;10593;48.398;10.698;2023-03-16T12:31:06;9.70;45.40
20866;DHT22;10593;48.398;10.698;2023-03-16T12:39:47;9.80;45.20
20866;DHT22;10593;48.398;10.698;2023-03-16T12:46:11;9.80;45.20
20866;DHT22;10593;48.398;10.698;2023-03-16T12:48:48;9.90;45.30
20866;DHT22;10593;48.398;10.698;2023-03-16T12:51:18;9.90;45.30
20866;DHT22;10593;48.398;10.698;2023-03-16T12:56:34;9.90;45.30
20866;DHT22;10593;48.398;10.698;2023-03-16T12:59:18;9.90;44.60
20866;DHT22;10593;48.398;10.698;2023-03-16T13:01:50;10.00;43.70
20866;DHT22;10593;48.398;10.698;2023-03-16T13:04:38;10.00;43.70
20866;DHT22;10593;48.398;10.698;2023-03-16T13:07:09;10.00;44.00
20866;DHT22;10593;48.398;10.698;2023-03-16T13:09:46;10.00;44.30
20866;DHT22;10593;48.398;10.698;2023-03-16T13:12:24;10.10;44.30
20866;DHT22;10593;48.398;10.698;2023-03-16T13:14:53;10.10;43.70
20866;DHT22;10593;48.398;10.698;2023-03-16T13:22:47;10.20;43.40
20866;DHT22;10593;48.398;10.698;2023-03-16T13:25:38;10.20;43.20
20866;DHT22;10593;48.398;10.698;2023-03-16T13:28:14;10.30;43.50
20866;DHT22;10593;48.398;10.698;2023-03-16T13:30:46;10.30;43.30
20866;DHT22;10593;48.398;10.698;2023-03-16T13:33:29;10.30;42.70
20866;DHT22;10593;48.398;10.698;2023-03-16T13:35:58;10.30;42.30
20866;DHT22;10593;48.398;10.698;2023-03-16T13:38:26;10.40;42.40
20866;DHT22;10593;48.398;10.698;2023-03-16T13:41:04;10.40;42.20
20866;DHT22;10593;48.398;10.698;2023-03-16T13:43:38;10.40;41.80
20866;DHT22;10593;48.398;10.698;2023-03-16T13:46:19;10.50;42.20
20866;DHT22;10593;48.398;10.698;2023-03-16T13:48:47;10.50;41.40
20866;DHT22;10593;48.398;10.698;2023-03-16T13:51:16;10.50;41.50
20866;DHT22;10593;48.398;10.698;2023-03-16T13:53:43;10.50;41.40
20866;DHT22;10593;48.398;10.698;2023-03-16T13:56:22;10.60;41.50
20866;DHT22;10593;48.398;10.698;2023-03-16T13:58:51;10.60;41.50
20866;DHT22;10593;48.398;10.698;2023-03-16T14:04:02;10.60;41.50
20866;DHT22;10593;48.398;10.698;2023-03-16T14:06:36;10.60;41.50
20866;DHT22;10593;48.398;10.698;2023-03-16T14:09:13;10.70;41.60
20866;DHT22;10593;48.398;10.698;2023-03-16T14:11:43;10.70;41.30
20866;DHT22;10593;48.398;10.698;2023-03-16T14:14:18;10.70;41.40
20866;DHT22;10593;48.398;10.698;2023-03-16T14:16:48;10.70;41.60
20866;DHT22;10593;48.398;10.698;2023-03-16T14:19:21;10.70;41.80
20866;DHT22;10593;48.398;10.698;2023-03-16T14:22:03;10.80;41.90
20866;DHT22;10593;48.398;10.698;2023-03-16T14:24:36;10.80;41.80
20866;DHT22;10593;48.398;10.698;2023-03-16T14:29:43;10.90;41.50
20866;DHT22;10593;48.398;10.698;2023-03-16T14:34:52;10.90;41.10
20866;DHT22;10593;48.398;10.698;2023-03-16T14:37:34;10.90;41.00
20866;DHT22;10593;48.398;10.698;2023-03-16T14:40:03;10.90;40.40
20866;DHT22;10593;48.398;10.698;2023-03-16T14:42:54;10.90;40.30
20866;DHT22;10593;48.398;10.698;2023-03-16T14:45:27;11.00;40.70
20866;DHT22;10593;48.398;10.698;2023-03-16T14:48:02;11.00;40.80
20866;DHT22;10593;48.398;10.698;2023-03-16T14:50:34;11.00;40.70
20866;DHT22;10593;48.398;10.698;2023-03-16T14:53:00;11.00;40.80
20866;DHT22;10593;48.398;10.698;2023-03-16T14:55:28;11.00;40.80
20866;DHT22;10593;48.398;10.698;2023-03-16T14:57:54;11.00;40.60
20866;DHT22;10593;48.398;10.698;2023-03-16T15:00:20;11.10;40.50
20866;DHT22;10593;48.398;10.698;2023-03-16T15:02:57;11.00;40.10
20866;DHT22;10593;48.398;10.698;2023-03-16T15:05:40;11.00;40.20
20866;DHT22;10593;48.398;10.698;2023-03-16T15:08:22;11.10;40.50
20866;DHT22;10593;48.398;10.698;2023-03-16T15:10:52;11.10;40.20
20866;DHT22;10593;48.398;10.698;2023-03-16T15:13:21;11.10;40.30
20866;DHT22;10593;48.398;10.698;2023-03-16T15:16:17;11.10;40.50
20866;DHT22;10593;48.398;10.698;2023-03-16T15:18:45;11.20;40.60
20866;DHT22;10593;48.398;10.698;2023-03-16T15:21:20;11.10;40.10
20866;DHT22;10593;48.398;10.698;2023-03-16T15:23:47;11.20;40.20
20866;DHT22;10593;48.398;10.698;2023-03-16T15:26:17;11.20;40.50
20866;DHT22;10593;48.398;10.698;2023-03-16T15:28:50;11.20;40.60
20866;DHT22;10593;48.398;10.698;2023-03-16T15:31:16;11.20;40.60
20866;DHT22;10593;48.398;10.698;2023-03-16T15:33:41;11.10;40.60
20866;DHT22;10593;48.398;10.698;2023-03-16T15:36:14;11.10;40.70
20866;DHT22;10593;48.398;10.698;2023-03-16T15:38:44;11.20;40.60
20866;DHT22;10593;48.398;10.698;2023-03-16T15:41:14;11.20;40.50
20866;DHT22;10593;48.398;10.698;2023-03-16T15:43:41;11.10;40.30
20866;DHT22;10593;48.398;10.698;2023-03-16T15:46:09;11.20;40.40
20866;DHT22;10593;48.398;10.698;2023-03-16T15:48:35;11.10;40.50
20866;DHT22;10593;48.398;10.698;2023-03-16T15:51:05;11.20;40.30
20866;DHT22;10593;48.398;10.698;2023-03-16T15:53:42;11.10;39.80
20866;DHT22;10593;48.398;10.698;2023-03-16T15:56:14;11.20;39.80
20866;DHT22;10593;48.398;10.698;2023-03-16T15:58:44;11.20;40.00
20866;DHT22;10593;48.398;10.698;2023-03-16T16:01:25;11.10;39.80
20866;DHT22;10593;48.398;10.698;2023-03-16T16:03:53;11.10;39.70
20866;DHT22;10593;48.398;10.698;2023-03-16T16:06:20;11.10;39.80
20866;DHT22;10593;48.398;10.698;2023-03-16T16:08:46;11.20;40.10
20866;DHT22;10593;48.398;10.698;2023-03-16T16:11:18;11.10;40.20
20866;DHT22;10593;48.398;10.698;2023-03-16T16:13:50;11.10;40.20
20866;DHT22;10593;48.398;10.698;2023-03-16T16:16:17;11.10;40.30
20866;DHT22;10593;48.398;10.698;2023-03-16T16:18:45;11.10;40.40
20866;DHT22;10593;48.398;10.698;2023-03-16T16:21:31;11.10;40.50
20866;DHT22;10593;48.398;10.698;2023-03-16T16:23:59;11.10;40.40
20866;DHT22;10593;48.398;10.698;2023-03-16T16:26:30;11.10;40.60
20866;DHT22;10593;48.398;10.698;2023-03-16T16:28:59;11.10;40.80
20866;DHT22;10593;48.398;10.698;2023-03-16T16:31:27;11.10;40.80
20866;DHT22;10593;48.398;10.698;2023-03-16T16:33:55;11.10;40.50
20866;DHT22;10593;48.398;10.698;2023-03-16T16:36:21;11.10;40.60
20866;DHT22;10593;48.398;10.698;2023-03-16T16:38:48;11.10;40.80
20866;DHT22;10593;48.398;10.698;2023-03-16T16:41:24;11.10;40.90
20866;DHT22;10593;48.398;10.698;2023-03-16T16:43:53;11.00;40.80
20866;DHT22;10593;48.398;10.698;2023-03-16T16:46:22;11.10;40.90
20866;DHT22;10593;48.398;10.698;2023-03-16T16:48:52;11.10;41.60
20866;DHT22;10593;48.398;10.698;2023-03-16T16:51:24;11.00;41.10
20866;DHT22;10593;48.398;10.698;2023-03-16T16:53:53;11.00;41.10
20866;DHT22;10593;48.398;10.698;2023-03-16T16:56:28;11.00;40.90
20866;DHT22;10593;48.398;10.698;2023-03-16T16:58:58;11.00;41.00
20866;DHT22;10593;48.398;10.698;2023-03-16T17:01:30;11.00;41.10
20866;DHT22;10593;48.398;10.698;2023-03-16T17:03:59;11.00;41.10
20866;DHT22;10593;48.398;10.698;2023-03-16T17:06:26;10.90;41.10
20866;DHT22;10593;48.398;10.698;2023-03-16T17:08:52;10.90;41.10
20866;DHT22;10593;48.398;10.698;2023-03-16T17:11:22;10.90;41.20
20866;DHT22;10593;48.398;10.698;2023-03-16T17:13:51;10.90;41.20
20866;DHT22;10593;48.398;10.698;2023-03-16T17:16:19;10.90;41.20
20866;DHT22;10593;48.398;10.698;2023-03-16T17:18:51;10.80;41.10
20866;DHT22;10593;48.398;10.698;2023-03-16T17:21:19;10.80;41.40
20866;DHT22;10593;48.398;10.698;2023-03-16T17:23:49;10.80;41.70